createdAt,value
2019-02-12T00:01:00.939Z,12.27
2019-02-12T00:03:54.946Z,4.27
2019-02-12T00:06:27.186Z,5.17
2019-02-12T00:08:56.818Z,5.63
2019-02-12T00:11:30.742Z,12.83
2019-02-12T00:14:10.550Z,3.33
2019-02-12T00:16:53.082Z,10.33
2019-02-12T00:19:40.801Z,7.17
2019-02-12T00:22:30.181Z,5.80
2019-02-12T00:25:27.328Z,4.67
2019-02-12T00:28:04.405Z,6.30
2019-02-12T00:30:39.145Z,12.23
2019-02-12T00:33:10.398Z,3.77
2019-02-12T00:35:46.232Z,4.97
2019-02-12T00:38:39.506Z,5.23
2019-02-12T00:41:15.220Z,3.80
2019-02-12T00:43:57.075Z,12.17
2019-02-12T00:46:32.903Z,5.93
2019-02-12T00:49:32.516Z,4.10
2019-02-12T00:52:06.562Z,8.90
2019-02-12T00:57:28.372Z,3.00
2019-02-12T01:02:52.409Z,6.50
2019-02-12T01:05:21.373Z,3.43
2019-02-12T01:07:59.360Z,8.83
2019-02-12T01:10:35.815Z,16.10
2019-02-12T01:13:23.597Z,14.77
2019-02-12T01:16:01.170Z,9.63
2019-02-12T01:18:34.827Z,4.40
2019-02-12T01:21:14.300Z,12.33
2019-02-12T01:24:03.184Z,8.40
2019-02-12T01:26:39.105Z,8.93
2019-02-12T01:29:18.899Z,24.90
2019-02-12T01:32:05.570Z,11.67
2019-02-12T01:34:42.003Z,6.90
2019-02-12T01:37:21.026Z,8.00
2019-02-12T01:40:17.116Z,8.20
2019-02-12T01:42:56.425Z,7.73
2019-02-12T01:45:33.351Z,12.57
2019-02-12T01:48:08.555Z,9.23
2019-02-12T01:50:42.420Z,5.90
2019-02-12T01:53:14.679Z,8.30
2019-02-12T01:55:52.032Z,7.33
2019-02-12T01:58:30.349Z,6.43
2019-02-12T02:01:12.646Z,6.80
2019-02-12T02:03:49.861Z,7.50
2019-02-12T02:06:22.308Z,11.90
2019-02-12T02:08:51.814Z,6.70
2019-02-12T02:11:26.327Z,7.90
2019-02-12T02:13:59.830Z,11.70
2019-02-12T02:16:29.537Z,7.43
2019-02-12T02:19:05.086Z,5.10
2019-02-12T02:21:31.585Z,5.03
2019-02-12T02:24:04.876Z,4.70
2019-02-12T02:26:38.822Z,1.53
2019-02-12T02:29:30.447Z,6.00
2019-02-12T02:32:09.824Z,10.80
2019-02-12T02:34:50.713Z,18.33
2019-02-12T02:37:24.929Z,11.40
2019-02-12T02:39:56.834Z,8.07
2019-02-12T02:42:32.443Z,1.20
2019-02-12T02:45:02.644Z,5.80
2019-02-12T02:47:42.730Z,6.43
2019-02-12T02:50:28.590Z,11.80
2019-02-12T02:53:02.661Z,4.70
2019-02-12T02:55:34.316Z,4.87
2019-02-12T02:58:05.841Z,6.70
2019-02-12T03:00:46.054Z,4.00
2019-02-12T03:03:21.622Z,5.57
2019-02-12T03:06:11.040Z,5.63
2019-02-12T03:08:52.488Z,5.60
2019-02-12T03:11:27.303Z,5.73
2019-02-12T03:13:57.831Z,6.10
2019-02-12T03:16:31.498Z,15.03
2019-02-12T03:19:14.028Z,12.00
2019-02-12T03:21:47.656Z,3.90
2019-02-12T03:24:36.838Z,11.33
2019-02-12T03:27:07.042Z,7.40
2019-02-12T03:29:46.571Z,6.27
2019-02-12T03:32:26.837Z,6.50
2019-02-12T03:35:04.421Z,12.80
2019-02-12T03:37:46.217Z,8.63
2019-02-12T03:40:19.836Z,5.50
2019-02-12T03:42:51.901Z,10.63
2019-02-12T03:45:41.008Z,10.73
2019-02-12T03:48:23.041Z,6.23
2019-02-12T03:51:00.237Z,6.07
2019-02-12T03:53:47.185Z,4.37
2019-02-12T03:56:19.026Z,2.87
2019-02-12T03:58:54.573Z,7.40
2019-02-12T04:01:24.355Z,5.27
2019-02-12T04:03:57.459Z,4.40
2019-02-12T04:06:48.704Z,5.70
2019-02-12T04:09:16.969Z,10.53
2019-02-12T04:11:51.274Z,9.13
2019-02-12T04:14:28.992Z,7.20
2019-02-12T04:17:08.525Z,7.03
2019-02-12T04:20:00.050Z,9.00
2019-02-12T04:22:40.271Z,16.57
2019-02-12T04:25:07.823Z,3.03
2019-02-12T04:27:44.735Z,7.37
2019-02-12T04:30:41.183Z,13.17
2019-02-12T04:33:20.674Z,11.23
2019-02-12T04:35:55.830Z,8.37
2019-02-12T04:38:25.466Z,9.47
2019-02-12T04:41:11.763Z,9.20
2019-02-12T04:43:42.095Z,9.97
2019-02-12T04:46:16.917Z,8.23
2019-02-12T04:48:49.196Z,3.50
2019-02-12T04:51:22.895Z,9.47
2019-02-12T04:53:59.860Z,3.37
2019-02-12T04:56:40.181Z,12.30
2019-02-12T04:59:15.686Z,7.53
2019-02-12T05:01:52.363Z,11.80
2019-02-12T05:04:24.922Z,6.50
2019-02-12T05:06:56.632Z,7.97
2019-02-12T05:09:30.701Z,16.63
2019-02-12T05:12:21.720Z,3.70
2019-02-12T05:15:00.285Z,5.33
2019-02-12T05:17:41.805Z,12.73
2019-02-12T05:20:20.286Z,9.93
2019-02-12T05:22:56.700Z,6.83
2019-02-12T05:25:29.566Z,10.77
2019-02-12T05:28:05.837Z,6.40
2019-02-12T05:30:38.646Z,6.13
2019-02-12T05:33:17.736Z,8.60
2019-02-12T05:35:59.863Z,6.63
2019-02-12T05:38:33.315Z,5.30
2019-02-12T05:41:25.878Z,5.20
2019-02-12T05:44:00.202Z,3.90
2019-02-12T05:46:30.665Z,5.33
2019-02-12T05:49:00.471Z,6.17
2019-02-12T05:51:49.417Z,5.97
2019-02-12T05:54:32.370Z,11.50
2019-02-12T05:57:06.959Z,9.03
2019-02-12T05:59:37.598Z,3.13
2019-02-12T06:02:07.233Z,3.80
2019-02-12T06:04:47.182Z,4.63
2019-02-12T06:07:14.839Z,5.13
2019-02-12T06:09:50.650Z,14.57
2019-02-12T06:12:21.841Z,2.70
2019-02-12T06:15:14.240Z,3.60
2019-02-12T06:20:34.485Z,10.10
2019-02-12T06:23:04.324Z,13.03
2019-02-12T06:25:33.305Z,4.87
2019-02-12T06:28:03.559Z,10.47
2019-02-12T06:30:32.756Z,4.73
2019-02-12T06:33:07.242Z,4.80
2019-02-12T06:35:31.944Z,12.10
2019-02-12T06:38:00.741Z,9.93
2019-02-12T06:40:29.721Z,6.80
2019-02-12T06:42:58.726Z,8.87
2019-02-12T06:45:27.450Z,7.40
2019-02-12T06:47:56.676Z,3.53
2019-02-12T06:50:25.700Z,14.93
2019-02-12T06:53:13.892Z,13.10
2019-02-12T06:55:42.865Z,13.13
2019-02-12T06:58:31.146Z,3.57
2019-02-12T07:01:00.435Z,2.40
2019-02-12T07:03:42.629Z,10.10
2019-02-12T07:06:42.742Z,6.40
2019-02-12T07:09:29.080Z,13.67
2019-02-12T07:12:33.650Z,11.23
2019-02-12T07:15:38.334Z,13.20
2019-02-12T07:18:44.350Z,14.33
2019-02-12T07:21:43.514Z,6.77
2019-02-12T07:24:37.865Z,11.93
2019-02-12T07:27:36.842Z,9.80
2019-02-12T07:30:29.304Z,6.90
2019-02-12T07:33:13.355Z,7.53
2019-02-12T07:35:51.989Z,5.50
2019-02-12T07:38:54.639Z,10.83
2019-02-12T07:42:13.532Z,4.27
2019-02-12T07:45:21.020Z,17.03
2019-02-12T07:48:24.726Z,9.97
2019-02-12T07:51:31.915Z,6.53
2019-02-12T07:54:11.542Z,10.53
2019-02-12T07:57:05.193Z,20.57
2019-02-12T08:00:29.636Z,13.90
2019-02-12T08:03:23.969Z,5.70
2019-02-12T08:06:27.916Z,8.70
2019-02-12T08:09:44.346Z,11.13
2019-02-12T08:12:36.965Z,6.30
2019-02-12T08:15:51.021Z,6.67
2019-02-12T08:18:48.686Z,10.13
2019-02-12T08:21:35.579Z,6.70
2019-02-12T08:24:18.363Z,4.97
2019-02-12T08:27:16.051Z,17.27
2019-02-12T08:30:37.168Z,7.73
2019-02-12T08:33:46.263Z,7.00
2019-02-12T08:36:27.685Z,8.53
2019-02-12T08:39:33.790Z,14.43
2019-02-12T08:42:27.137Z,13.20
2019-02-12T08:45:50.977Z,9.30
2019-02-12T08:48:46.128Z,9.73
2019-02-12T08:51:26.989Z,8.50
2019-02-12T08:54:33.789Z,12.30
2019-02-12T08:57:27.402Z,10.90
2019-02-12T09:00:05.250Z,10.03
2019-02-12T09:03:13.070Z,21.50
2019-02-12T09:06:05.890Z,18.17
2019-02-12T09:09:13.713Z,7.37
2019-02-12T09:12:12.913Z,21.70
2019-02-12T09:14:51.253Z,12.47
2019-02-12T09:17:47.844Z,22.27
2019-02-12T09:21:25.301Z,9.70
2019-02-12T09:24:14.325Z,15.93
2019-02-12T09:27:37.149Z,13.43
2019-02-12T09:30:40.807Z,11.40
2019-02-12T09:33:35.961Z,11.63
2019-02-12T09:36:58.088Z,12.57
2019-02-12T09:39:51.556Z,20.07
2019-02-12T09:42:37.766Z,11.07
2019-02-12T09:45:42.946Z,12.00
2019-02-12T09:48:32.283Z,9.03
2019-02-12T09:51:22.323Z,12.43
2019-02-12T09:54:23.291Z,11.97
2019-02-12T09:57:20.111Z,16.73
2019-02-12T10:00:26.466Z,17.10
2019-02-12T10:03:24.181Z,15.40
2019-02-12T10:06:05.402Z,7.90
2019-02-12T10:09:10.658Z,12.40
2019-02-12T10:12:11.149Z,14.10
2019-02-12T10:14:54.005Z,13.00
2019-02-12T10:18:00.415Z,9.43
2019-02-12T10:20:54.241Z,12.23
2019-02-12T10:24:19.836Z,15.87
2019-02-12T10:26:53.835Z,17.03
2019-02-12T10:29:37.435Z,12.33
2019-02-12T10:32:08.642Z,20.97
2019-02-12T10:34:36.198Z,12.90
2019-02-12T10:37:04.953Z,9.77
2019-02-12T10:39:33.943Z,9.00
2019-02-12T10:42:04.525Z,8.97
2019-02-12T10:44:33.504Z,9.80
2019-02-12T10:47:02.790Z,12.13
2019-02-12T10:49:32.275Z,10.67
2019-02-12T10:52:01.323Z,13.10
2019-02-12T10:54:30.397Z,11.77
2019-02-12T10:56:59.442Z,8.43
2019-02-12T10:59:28.861Z,13.50
2019-02-12T11:01:58.894Z,15.13
2019-02-12T11:04:31.136Z,19.60
2019-02-12T11:07:00.121Z,14.93
2019-02-12T11:09:29.678Z,9.73
2019-02-12T11:11:59.038Z,19.27
2019-02-12T11:14:28.770Z,12.93
2019-02-12T11:17:00.541Z,16.50
2019-02-12T11:19:30.374Z,13.80
2019-02-12T11:22:00.905Z,12.77
2019-02-12T11:24:35.447Z,9.00
2019-02-12T11:27:01.104Z,7.93
2019-02-12T11:29:30.512Z,10.50
2019-02-12T11:32:00.716Z,11.83
2019-02-12T11:34:29.946Z,14.10
2019-02-12T11:36:59.639Z,16.53
2019-02-12T11:39:28.628Z,13.97
2019-02-12T11:41:58.540Z,12.57
2019-02-12T11:44:28.782Z,13.27
2019-02-12T11:46:57.544Z,14.47
2019-02-12T11:49:27.215Z,9.20
2019-02-12T11:51:56.617Z,14.67
2019-02-12T11:54:25.592Z,11.77
2019-02-12T11:56:54.585Z,13.63
2019-02-12T11:59:23.289Z,9.10
2019-02-12T12:01:52.021Z,11.70
2019-02-12T12:04:21.005Z,9.67
2019-02-12T12:06:50.080Z,14.80
2019-02-12T12:09:18.801Z,9.20
2019-02-12T12:11:47.529Z,23.23
2019-02-12T12:14:17.009Z,15.60
2019-02-12T12:16:46.255Z,9.77
2019-02-12T12:19:15.213Z,10.17
2019-02-12T12:22:03.183Z,7.90
2019-02-12T12:24:32.145Z,6.07
2019-02-12T12:27:00.844Z,10.00
2019-02-12T12:29:39.429Z,20.83
2019-02-12T12:32:08.710Z,11.60
2019-02-12T12:34:37.833Z,13.23
2019-02-12T12:37:06.866Z,8.60
2019-02-12T12:39:35.673Z,9.10
2019-02-12T12:42:04.669Z,15.03
2019-02-12T12:44:33.719Z,11.90
2019-02-12T12:47:02.443Z,12.60
2019-02-12T12:49:31.680Z,13.60
2019-02-12T12:52:00.910Z,13.57
2019-02-12T12:54:29.851Z,9.23
2019-02-12T12:56:59.161Z,11.43
2019-02-12T12:59:28.076Z,10.53
2019-02-12T13:01:57.269Z,12.60
2019-02-12T13:04:26.471Z,7.67
2019-02-12T13:06:55.580Z,5.73
2019-02-12T13:09:25.038Z,10.17
2019-02-12T13:11:54.141Z,6.37
2019-02-12T13:14:42.350Z,11.93
2019-02-12T13:17:12.015Z,5.13
2019-02-12T13:19:40.752Z,10.40
2019-02-12T13:22:09.494Z,9.20
2019-02-12T13:24:38.225Z,9.07
2019-02-12T13:27:06.970Z,9.40
2019-02-12T13:29:36.093Z,8.90
2019-02-12T13:32:05.047Z,13.17
2019-02-12T13:34:33.762Z,12.77
2019-02-12T13:37:02.747Z,11.90
2019-02-12T13:39:32.709Z,10.80
2019-02-12T13:42:01.450Z,7.30
2019-02-12T13:44:30.428Z,10.63
2019-02-12T13:46:59.419Z,11.37
2019-02-12T13:49:28.423Z,12.03
2019-02-12T13:51:57.412Z,8.30
2019-02-12T13:54:26.377Z,12.30
2019-02-12T13:56:55.378Z,16.17
2019-02-12T13:59:24.100Z,15.33
2019-02-12T14:01:52.863Z,14.10
2019-02-12T14:04:21.806Z,16.87
2019-02-12T14:06:50.582Z,15.93
2019-02-12T14:09:19.344Z,11.77
2019-02-12T14:11:48.102Z,11.63
2019-02-12T14:14:17.246Z,18.10
2019-02-12T14:16:45.965Z,15.17
2019-02-12T14:19:15.401Z,13.57
2019-02-12T14:21:44.113Z,17.20
2019-02-12T14:24:13.354Z,11.47
2019-02-12T14:26:42.181Z,21.43
2019-02-12T14:29:12.693Z,15.17
2019-02-12T14:31:42.149Z,9.70
2019-02-12T14:34:11.481Z,20.97
2019-02-12T14:36:40.553Z,16.43
2019-02-12T14:39:09.339Z,14.60
2019-02-12T14:41:39.969Z,12.60
2019-02-12T14:44:09.006Z,18.10
2019-02-12T14:46:57.361Z,21.83
2019-02-12T14:49:26.666Z,14.73
2019-02-12T14:51:56.593Z,16.93
2019-02-12T14:54:25.789Z,19.53
2019-02-12T14:56:54.588Z,21.47
2019-02-12T14:59:23.628Z,23.07
2019-02-12T15:01:52.733Z,23.17
2019-02-12T15:04:21.879Z,12.93
2019-02-12T15:06:50.812Z,30.63
2019-02-12T15:09:19.684Z,16.47
2019-02-12T15:11:50.278Z,18.07
2019-02-12T15:14:19.452Z,21.90
2019-02-12T15:16:48.402Z,21.93
2019-02-12T15:19:17.310Z,24.43
2019-02-12T15:21:46.479Z,20.87
2019-02-12T15:24:15.427Z,22.80
2019-02-12T15:26:44.602Z,19.73
2019-02-12T15:29:13.761Z,22.53
2019-02-12T15:31:43.320Z,21.97
2019-02-12T15:34:12.218Z,23.00
2019-02-12T15:36:41.690Z,20.83
2019-02-12T15:39:10.629Z,14.90
2019-02-12T15:41:40.870Z,19.70
2019-02-12T15:44:09.645Z,20.90
2019-02-12T15:46:38.814Z,21.70
2019-02-12T15:49:07.704Z,25.10
2019-02-12T15:51:36.713Z,21.73
2019-02-12T15:54:05.702Z,20.37
2019-02-12T15:56:34.704Z,24.63
2019-02-12T15:59:03.721Z,22.50
2019-02-12T16:01:32.690Z,18.77
2019-02-12T16:04:01.409Z,18.63
2019-02-12T16:06:30.162Z,17.03
2019-02-12T16:08:58.897Z,19.93
2019-02-12T16:11:27.878Z,12.57
2019-02-12T16:13:57.202Z,15.43
2019-02-12T16:16:28.045Z,22.17
2019-02-12T16:18:58.046Z,16.37
2019-02-12T16:21:27.034Z,23.67
2019-02-12T16:23:55.772Z,20.10
2019-02-12T16:26:24.981Z,18.83
2019-02-12T16:28:53.721Z,13.17
2019-02-12T16:31:22.485Z,14.63
2019-02-12T16:33:51.245Z,18.83
2019-02-12T16:36:19.988Z,17.70
2019-02-12T16:38:49.027Z,14.13
2019-02-12T16:41:17.725Z,11.90
2019-02-12T16:43:46.528Z,17.93
2019-02-12T16:46:18.081Z,21.40
2019-02-12T16:48:47.334Z,13.27
2019-02-12T16:51:17.706Z,15.77
2019-02-12T16:53:46.625Z,18.00
2019-02-12T16:56:15.800Z,16.60
2019-02-12T16:58:46.232Z,15.37
2019-02-12T17:01:15.100Z,15.93
2019-02-12T17:03:43.893Z,15.43
2019-02-12T17:06:13.187Z,16.93
2019-02-12T17:08:42.453Z,17.37
2019-02-12T17:11:11.496Z,20.57
2019-02-12T17:13:40.996Z,23.53
2019-02-12T17:16:09.776Z,17.97
2019-02-12T17:18:38.766Z,29.00
2019-02-12T17:21:07.519Z,29.47
2019-02-12T17:23:36.580Z,24.33
2019-02-12T17:26:05.465Z,19.07
2019-02-12T17:28:34.425Z,18.07
2019-02-12T17:31:22.644Z,20.53
2019-02-12T17:33:51.641Z,14.03
2019-02-12T17:36:20.686Z,18.33
2019-02-12T17:38:49.509Z,13.40
2019-02-12T17:41:18.992Z,12.33
2019-02-12T17:43:48.512Z,16.40
2019-02-12T17:46:17.270Z,21.63
2019-02-12T17:48:46.235Z,20.77
2019-02-12T17:51:15.721Z,17.30
2019-02-12T17:53:44.671Z,15.90
2019-02-12T17:56:13.905Z,21.13
2019-02-12T17:58:54.383Z,14.30
2019-02-12T18:01:29.720Z,17.90
2019-02-12T18:04:00.548Z,14.07
2019-02-12T18:06:29.682Z,19.37
2019-02-12T18:08:59.227Z,23.20
2019-02-12T18:11:28.578Z,10.90
2019-02-12T18:13:57.920Z,25.93
2019-02-12T18:16:27.162Z,19.10
2019-02-12T18:18:57.638Z,22.07
2019-02-12T18:21:26.653Z,16.93
2019-02-12T18:23:55.861Z,22.80
2019-02-12T18:26:32.881Z,22.87
2019-02-12T18:28:55.633Z,15.27
2019-02-12T18:31:24.617Z,19.53
2019-02-12T18:33:53.429Z,14.20
2019-02-12T18:36:22.153Z,17.13
2019-02-12T18:38:50.884Z,12.07
2019-02-12T18:41:19.631Z,19.10
2019-02-12T18:43:48.382Z,9.70
2019-02-12T18:46:17.359Z,13.93
2019-02-12T18:48:47.694Z,10.37
2019-02-12T18:51:17.732Z,10.07
2019-02-12T18:54:06.128Z,14.43
2019-02-12T18:56:41.509Z,10.60
2019-02-12T18:59:05.575Z,11.30
2019-02-12T19:01:34.599Z,17.00
2019-02-12T19:04:05.936Z,10.50
2019-02-12T19:06:35.235Z,9.93
2019-02-12T19:09:12.284Z,16.87
2019-02-12T19:11:52.587Z,13.90
2019-02-12T19:14:13.055Z,12.30
2019-02-12T19:16:44.542Z,12.03
2019-02-12T19:19:13.477Z,12.93
2019-02-12T19:21:42.476Z,11.70
2019-02-12T19:24:11.278Z,15.43
2019-02-12T19:26:40.267Z,16.17
2019-02-12T19:29:09.931Z,12.40
2019-02-12T19:31:39.142Z,12.43
2019-02-12T19:34:27.382Z,15.13
2019-02-12T19:36:56.637Z,11.80
2019-02-12T19:39:25.749Z,16.80
2019-02-12T19:41:54.681Z,13.17
2019-02-12T19:44:23.779Z,13.20
2019-02-12T19:46:53.822Z,12.30
2019-02-12T19:49:23.345Z,14.23
2019-02-12T19:51:52.440Z,12.83
2019-02-12T19:54:22.071Z,16.37
2019-02-12T19:56:58.177Z,19.30
2019-02-12T19:59:23.111Z,18.93
2019-02-12T20:01:52.581Z,17.53
2019-02-12T20:04:21.909Z,18.47
2019-02-12T20:06:51.240Z,16.50
2019-02-12T20:09:21.668Z,20.23
2019-02-12T20:11:50.974Z,11.93
2019-02-12T20:14:20.453Z,20.30
2019-02-12T20:16:49.729Z,12.10
2019-02-12T20:19:19.275Z,15.87
2019-02-12T20:21:48.894Z,18.03
2019-02-12T20:24:17.848Z,18.93
2019-02-12T20:26:46.893Z,19.87
2019-02-12T20:29:19.401Z,23.53
2019-02-12T20:31:48.494Z,20.00
2019-02-12T20:34:19.598Z,22.87
2019-02-12T20:36:48.596Z,18.77
2019-02-12T20:39:17.831Z,22.00
2019-02-12T20:41:46.659Z,17.87
2019-02-12T20:44:15.473Z,17.40
2019-02-12T20:46:44.499Z,20.37
2019-02-12T20:49:13.828Z,19.63
2019-02-12T20:51:43.160Z,18.97
2019-02-12T20:54:12.186Z,19.53
2019-02-12T20:56:41.177Z,19.13
2019-02-12T20:59:10.274Z,18.33
2019-02-12T21:01:39.381Z,19.77
2019-02-12T21:04:08.292Z,17.43
2019-02-12T21:06:56.241Z,24.50
2019-02-12T21:09:25.497Z,17.50
2019-02-12T21:11:55.101Z,21.90
2019-02-12T21:14:24.381Z,22.77
2019-02-12T21:16:53.454Z,23.07
2019-02-12T21:19:22.493Z,22.70
2019-02-12T21:21:51.793Z,19.97
2019-02-12T21:24:21.030Z,19.87
2019-02-12T21:26:49.888Z,22.40
2019-02-12T21:29:18.867Z,24.47
2019-02-12T21:31:48.317Z,22.60
2019-02-12T21:34:17.329Z,18.30
2019-02-12T21:36:46.956Z,20.20
2019-02-12T21:39:18.075Z,21.43
2019-02-12T21:41:46.958Z,18.53
2019-02-12T21:44:15.975Z,19.57
2019-02-12T21:46:45.061Z,20.23
2019-02-12T21:49:14.078Z,20.03
2019-02-12T21:51:43.138Z,25.87
2019-02-12T21:54:12.361Z,24.00
2019-02-12T21:56:41.349Z,18.77
2019-02-12T21:59:10.371Z,18.27
2019-02-12T22:01:39.081Z,19.80
2019-02-12T22:04:08.359Z,22.17
2019-02-12T22:06:56.313Z,18.33
2019-02-12T22:09:25.549Z,19.57
2019-02-12T22:11:54.278Z,22.30
2019-02-12T22:14:23.257Z,18.83
2019-02-12T22:16:52.470Z,20.60
2019-02-12T22:19:21.204Z,16.83
2019-02-12T22:21:49.974Z,17.77
2019-02-12T22:24:19.224Z,26.13
2019-02-12T22:26:48.220Z,21.80
2019-02-12T22:29:17.425Z,22.00
2019-02-12T22:31:46.657Z,17.57
2019-02-12T22:34:15.442Z,16.17
2019-02-12T22:36:44.467Z,14.17
2019-02-12T22:39:13.201Z,21.80
2019-02-12T22:41:41.922Z,17.97
2019-02-12T22:44:10.904Z,15.20
2019-02-12T22:46:39.944Z,16.40
2019-02-12T22:49:08.667Z,22.80
2019-02-12T22:51:37.430Z,17.70
2019-02-12T22:54:06.474Z,17.73
2019-02-12T22:56:35.445Z,19.13
2019-02-12T22:59:04.419Z,16.53
2019-02-12T23:01:40.413Z,17.93
2019-02-12T23:04:09.718Z,19.80
2019-02-12T23:06:57.906Z,16.67
2019-02-12T23:09:27.773Z,17.27
2019-02-12T23:11:56.649Z,17.97
2019-02-12T23:14:25.959Z,16.60
2019-02-12T23:17:28.726Z,20.80
2019-02-12T23:19:57.961Z,15.63
2019-02-12T23:25:56.309Z,16.13
2019-02-12T23:28:25.362Z,15.33
2019-02-12T23:30:54.132Z,13.73
2019-02-12T23:33:22.890Z,22.37
2019-02-12T23:35:52.218Z,22.43
2019-02-12T23:38:21.182Z,17.70
2019-02-12T23:40:49.907Z,18.67
2019-02-12T23:43:18.689Z,22.23
2019-02-12T23:45:49.129Z,22.67
2019-02-12T23:48:18.108Z,21.63
2019-02-12T23:50:46.828Z,23.60
2019-02-12T23:53:15.807Z,19.97
2019-02-12T23:55:44.796Z,23.67
2019-02-12T23:58:13.614Z,25.33
